createdAt,value
2023-03-30T00:01:28.824Z,39.90
2023-03-30T00:03:55.799Z,40.00
2023-03-30T00:06:23.128Z,40.00
2023-03-30T00:08:53.516Z,40.10
2023-03-30T00:11:23.121Z,40.10
2023-03-30T00:13:50.725Z,40.20
2023-03-30T00:16:18.121Z,40.20
2023-03-30T00:18:45.383Z,40.20
2023-03-30T00:21:12.395Z,40.20
2023-03-30T00:23:40.325Z,40.30
2023-03-30T00:26:10.074Z,40.20
2023-03-30T00:28:36.998Z,40.20
2023-03-30T00:31:04.239Z,40.20
2023-03-30T00:33:44.786Z,40.20
2023-03-30T00:36:13.866Z,40.20
2023-03-30T00:38:41.052Z,40.20
2023-03-30T00:41:09.357Z,40.20
2023-03-30T00:43:59.443Z,40.20
2023-03-30T00:46:26.644Z,40.20
2023-03-30T00:48:58.106Z,40.20
2023-03-30T00:51:27.860Z,40.20
2023-03-30T00:54:00.048Z,40.20
2023-03-30T00:56:30.326Z,40.30
2023-03-30T00:58:57.340Z,40.30
2023-03-30T01:01:29.064Z,40.20
2023-03-30T01:04:00.082Z,40.30
2023-03-30T01:06:30.133Z,40.30
2023-03-30T01:09:00.666Z,40.30
2023-03-30T01:11:27.938Z,40.30
2023-03-30T01:14:00.212Z,40.20
2023-03-30T01:16:30.326Z,40.20
2023-03-30T01:19:48.237Z,40.20
2023-03-30T01:22:41.297Z,40.20
2023-03-30T01:25:43.365Z,40.20
2023-03-30T01:28:41.938Z,40.20
2023-03-30T01:31:37.562Z,40.20
2023-03-30T01:34:16.193Z,40.20
2023-03-30T01:36:52.010Z,40.20
2023-03-30T01:39:29.116Z,40.20
2023-03-30T01:42:05.598Z,40.20
2023-03-30T01:44:50.758Z,40.30
2023-03-30T01:47:45.665Z,40.30
2023-03-30T01:50:31.625Z,40.30
2023-03-30T01:53:10.309Z,40.30
2023-03-30T01:55:45.004Z,40.30
2023-03-30T01:58:44.857Z,40.30
2023-03-30T02:01:14.521Z,40.40
2023-03-30T02:03:46.594Z,40.30
2023-03-30T02:06:20.608Z,40.30
2023-03-30T02:08:49.663Z,40.20
2023-03-30T02:11:16.582Z,40.20
2023-03-30T02:13:44.636Z,40.10
2023-03-30T02:16:28.950Z,40.00
2023-03-30T02:18:56.061Z,39.90
2023-03-30T02:21:22.998Z,39.70
2023-03-30T02:23:52.936Z,39.60
2023-03-30T02:26:19.862Z,39.60
2023-03-30T02:28:47.523Z,39.40
2023-03-30T02:31:16.462Z,39.30
2023-03-30T02:34:10.532Z,39.20
2023-03-30T02:36:53.800Z,39.10
2023-03-30T02:39:24.389Z,39.10
2023-03-30T02:42:10.152Z,39.10
2023-03-30T02:44:37.684Z,39.20
2023-03-30T02:47:30.419Z,39.30
2023-03-30T02:50:10.392Z,39.30
2023-03-30T02:52:46.427Z,39.30
2023-03-30T02:55:42.037Z,39.30
2023-03-30T02:58:23.821Z,39.20
2023-03-30T03:00:52.229Z,39.10
2023-03-30T03:03:31.700Z,39.10
2023-03-30T03:06:02.624Z,39.10
2023-03-30T03:08:34.468Z,39.00
2023-03-30T03:11:01.925Z,38.90
2023-03-30T03:13:29.135Z,38.90
2023-03-30T03:15:56.976Z,39.00
2023-03-30T03:18:24.580Z,39.00
2023-03-30T03:20:51.595Z,39.20
2023-03-30T03:23:18.480Z,40.10
2023-03-30T03:25:45.405Z,39.60
2023-03-30T03:28:12.396Z,39.70
2023-03-30T03:30:39.338Z,39.90
2023-03-30T03:33:06.507Z,40.00
2023-03-30T03:35:33.690Z,40.10
2023-03-30T03:38:00.814Z,40.20
2023-03-30T03:40:27.760Z,40.20
2023-03-30T03:42:54.612Z,40.20
2023-03-30T03:45:21.387Z,40.20
2023-03-30T03:47:51.395Z,40.20
2023-03-30T03:50:18.684Z,40.10
2023-03-30T03:52:45.848Z,40.10
2023-03-30T03:55:13.013Z,40.00
2023-03-30T03:57:40.198Z,40.00
2023-03-30T04:00:15.649Z,40.00
2023-03-30T04:02:43.705Z,39.90
2023-03-30T04:05:11.101Z,39.80
2023-03-30T04:07:38.103Z,39.90
2023-03-30T04:10:06.386Z,40.00
2023-03-30T04:12:33.547Z,40.10
2023-03-30T04:15:00.320Z,40.20
2023-03-30T04:17:28.224Z,40.30
2023-03-30T04:19:55.472Z,40.40
2023-03-30T04:22:26.174Z,40.50
2023-03-30T04:24:53.881Z,40.40
2023-03-30T04:27:20.627Z,40.50
2023-03-30T04:29:47.392Z,40.50
2023-03-30T04:32:14.356Z,40.50
2023-03-30T04:34:44.383Z,40.40
2023-03-30T04:37:11.407Z,40.40
2023-03-30T04:39:38.594Z,40.40
2023-03-30T04:42:06.283Z,40.30
2023-03-30T04:44:33.104Z,40.30
2023-03-30T04:46:59.881Z,40.30
2023-03-30T04:49:26.687Z,40.20
2023-03-30T04:51:54.658Z,40.20
2023-03-30T04:54:21.577Z,40.20
2023-03-30T04:56:48.681Z,40.20
2023-03-30T04:59:15.970Z,40.20
2023-03-30T05:01:43.262Z,40.30
2023-03-30T05:04:10.123Z,40.40
2023-03-30T05:06:36.926Z,40.50
2023-03-30T05:09:03.957Z,40.60
2023-03-30T05:11:30.715Z,40.60
2023-03-30T05:13:57.584Z,40.60
2023-03-30T05:16:24.401Z,40.70
2023-03-30T05:18:51.861Z,40.70
2023-03-30T05:21:18.716Z,40.60
2023-03-30T05:23:45.511Z,40.60
2023-03-30T05:26:12.397Z,40.70
2023-03-30T05:28:39.238Z,40.70
2023-03-30T05:31:06.884Z,40.70
2023-03-30T05:33:33.916Z,40.80
2023-03-30T05:36:00.914Z,40.80
2023-03-30T05:38:27.860Z,40.80
2023-03-30T05:40:54.667Z,40.80
2023-03-30T05:43:21.832Z,41.00
2023-03-30T05:45:49.051Z,41.10
2023-03-30T05:48:16.247Z,41.20
2023-03-30T05:50:43.139Z,41.40
2023-03-30T05:53:10.152Z,41.60
2023-03-30T05:55:36.997Z,41.70
2023-03-30T05:58:04.169Z,41.90
2023-03-30T06:00:36.725Z,42.00
2023-03-30T06:03:04.451Z,42.10
2023-03-30T06:05:33.829Z,42.20
2023-03-30T06:08:00.935Z,42.30
2023-03-30T06:10:28.195Z,42.30
2023-03-30T06:12:54.980Z,42.30
2023-03-30T06:15:22.171Z,42.20
2023-03-30T06:17:50.033Z,42.30
2023-03-30T06:20:17.026Z,42.20
2023-03-30T06:22:43.893Z,42.20
2023-03-30T06:25:10.935Z,42.20
2023-03-30T06:27:37.748Z,42.30
2023-03-30T06:30:05.272Z,42.30
2023-03-30T06:32:32.127Z,42.50
2023-03-30T06:34:58.919Z,42.70
2023-03-30T06:37:25.756Z,42.80
2023-03-30T06:39:52.732Z,43.00
2023-03-30T06:42:19.660Z,42.90
2023-03-30T06:44:47.579Z,42.80
2023-03-30T06:47:16.231Z,42.80
2023-03-30T06:49:43.073Z,42.70
2023-03-30T06:52:11.406Z,42.70
2023-03-30T06:54:38.206Z,42.70
2023-03-30T06:57:05.299Z,42.60
2023-03-30T06:59:37.070Z,42.70
2023-03-30T07:02:04.234Z,42.70
2023-03-30T07:04:31.231Z,42.70
2023-03-30T07:06:58.241Z,42.70
2023-03-30T07:09:27.903Z,42.80
2023-03-30T07:11:56.284Z,43.00
2023-03-30T07:14:23.629Z,43.10
2023-03-30T07:16:56.107Z,43.30
2023-03-30T07:19:25.598Z,43.60
2023-03-30T07:21:52.711Z,43.90
2023-03-30T07:24:19.700Z,44.10
2023-03-30T07:26:50.196Z,44.40
2023-03-30T07:29:17.662Z,44.60
2023-03-30T07:31:47.422Z,44.80
2023-03-30T07:34:17.168Z,44.90
2023-03-30T07:36:49.805Z,45.00
2023-03-30T07:39:19.212Z,45.10
2023-03-30T07:41:46.456Z,45.10
2023-03-30T07:44:13.339Z,45.20
2023-03-30T07:46:41.155Z,45.10
2023-03-30T07:49:08.314Z,45.00
2023-03-30T07:51:35.471Z,45.00
2023-03-30T07:54:02.887Z,45.00
2023-03-30T07:56:29.772Z,44.90
2023-03-30T07:58:57.122Z,45.00
2023-03-30T08:01:24.057Z,45.10
2023-03-30T08:03:50.923Z,45.20
2023-03-30T08:06:17.708Z,45.40
2023-03-30T08:08:44.514Z,45.60
2023-03-30T08:11:12.659Z,45.70
2023-03-30T08:13:39.661Z,45.90
2023-03-30T08:16:08.876Z,46.00
2023-03-30T08:18:37.089Z,46.10
2023-03-30T08:21:04.892Z,46.10
2023-03-30T08:23:31.958Z,46.20
2023-03-30T08:25:59.949Z,46.20
2023-03-30T08:28:27.332Z,46.20
2023-03-30T08:30:54.705Z,46.20
2023-03-30T08:33:23.172Z,46.30
2023-03-30T08:35:51.061Z,46.90
2023-03-30T08:38:18.969Z,46.90
2023-03-30T08:40:47.826Z,46.20
2023-03-30T08:43:36.780Z,46.10
2023-03-30T08:46:04.058Z,46.10
2023-03-30T08:48:37.622Z,46.10
2023-03-30T08:51:22.856Z,46.10
2023-03-30T08:54:04.071Z,46.10
2023-03-30T08:56:34.811Z,46.00
2023-03-30T08:59:23.261Z,45.80
2023-03-30T09:01:55.305Z,45.70
2023-03-30T09:04:41.881Z,45.60
2023-03-30T09:07:21.820Z,45.60
2023-03-30T09:09:53.201Z,45.60
2023-03-30T09:12:24.987Z,45.50
2023-03-30T09:14:58.142Z,45.60
2023-03-30T09:17:32.527Z,45.50
2023-03-30T09:20:26.954Z,45.50
2023-03-30T09:22:56.656Z,45.50
2023-03-30T09:25:34.467Z,45.50
2023-03-30T09:28:07.093Z,45.40
2023-03-30T09:30:48.341Z,45.50
2023-03-30T09:33:43.802Z,45.50
2023-03-30T09:36:33.399Z,45.50
2023-03-30T09:39:00.182Z,45.40
2023-03-30T09:41:54.875Z,45.30
2023-03-30T09:44:37.191Z,45.10
2023-03-30T09:47:25.204Z,45.10
2023-03-30T09:50:32.312Z,45.00
2023-03-30T09:53:01.619Z,45.60
2023-03-30T09:55:30.001Z,44.90
2023-03-30T09:58:32.868Z,44.80
2023-03-30T10:01:14.546Z,44.80
2023-03-30T10:03:43.441Z,44.80
2023-03-30T10:06:18.520Z,45.00
2023-03-30T10:08:52.069Z,45.30
2023-03-30T10:11:34.211Z,45.40
2023-03-30T10:14:01.455Z,45.50
2023-03-30T10:16:32.510Z,45.80
2023-03-30T10:19:02.548Z,45.80
2023-03-30T10:21:39.394Z,46.00
2023-03-30T10:24:22.173Z,46.10
2023-03-30T10:26:52.402Z,46.10
2023-03-30T10:29:22.886Z,46.20
2023-03-30T10:31:57.574Z,46.20
2023-03-30T10:34:36.624Z,46.10
2023-03-30T10:37:32.515Z,46.70
2023-03-30T10:40:02.656Z,45.90
2023-03-30T10:42:32.412Z,45.90
2023-03-30T10:45:02.539Z,45.90
2023-03-30T10:47:48.751Z,45.80
2023-03-30T10:50:46.428Z,45.80
2023-03-30T10:53:26.245Z,45.90
2023-03-30T10:56:17.117Z,46.10
2023-03-30T10:59:00.782Z,46.40
2023-03-30T11:02:01.459Z,46.40
2023-03-30T11:04:36.148Z,46.50
2023-03-30T11:07:07.703Z,46.60
2023-03-30T11:09:39.304Z,46.60
2023-03-30T11:12:12.641Z,46.50
2023-03-30T11:14:45.940Z,46.60
2023-03-30T11:17:43.716Z,46.60
2023-03-30T11:20:27.324Z,46.50
2023-03-30T11:23:37.178Z,46.40
2023-03-30T11:26:09.804Z,46.10
2023-03-30T11:28:48.901Z,46.00
2023-03-30T11:31:40.296Z,46.00
2023-03-30T11:34:23.397Z,46.70
2023-03-30T11:37:15.257Z,45.90
2023-03-30T11:39:56.764Z,46.00
2023-03-30T11:42:28.407Z,46.20
2023-03-30T11:44:55.884Z,46.30
2023-03-30T11:48:01.758Z,46.50
2023-03-30T11:50:56.259Z,46.60
2023-03-30T11:53:48.922Z,46.60
2023-03-30T11:57:03.071Z,46.50
2023-03-30T11:59:46.321Z,46.50
2023-03-30T12:02:36.295Z,46.30
2023-03-30T12:05:17.232Z,46.20
2023-03-30T12:07:55.888Z,46.00
2023-03-30T12:10:42.234Z,45.90
2023-03-30T12:13:18.341Z,45.80
2023-03-30T12:15:45.460Z,45.70
2023-03-30T12:18:27.311Z,45.50
2023-03-30T12:21:10.855Z,45.60
2023-03-30T12:23:52.942Z,45.60
2023-03-30T12:26:31.302Z,45.40
2023-03-30T12:32:04.156Z,45.00
2023-03-30T12:34:40.709Z,45.10
2023-03-30T12:37:16.284Z,45.30
2023-03-30T12:39:50.200Z,46.20
2023-03-30T12:42:39.338Z,45.70
2023-03-30T12:45:37.364Z,45.80
2023-03-30T12:48:07.669Z,45.70
2023-03-30T12:51:10.420Z,45.90
2023-03-30T12:54:08.345Z,46.10
2023-03-30T12:56:42.249Z,46.10
2023-03-30T12:59:31.820Z,46.10
2023-03-30T13:02:11.636Z,46.10
2023-03-30T13:04:43.006Z,46.10
2023-03-30T13:07:22.666Z,46.10
2023-03-30T13:09:53.912Z,46.00
2023-03-30T13:12:27.174Z,45.90
2023-03-30T13:15:04.044Z,45.80
2023-03-30T13:17:50.659Z,45.90
2023-03-30T13:20:30.085Z,45.90
2023-03-30T13:23:09.235Z,45.90
2023-03-30T13:25:57.618Z,45.90
2023-03-30T13:28:45.775Z,45.80
2023-03-30T13:31:37.486Z,45.90
2023-03-30T13:34:28.796Z,46.10
2023-03-30T13:37:07.628Z,46.20
2023-03-30T13:39:43.601Z,46.40
2023-03-30T13:42:27.813Z,46.60
2023-03-30T13:45:00.354Z,46.80
2023-03-30T13:47:51.061Z,47.10
2023-03-30T13:50:28.615Z,47.10
2023-03-30T13:52:58.935Z,47.00
2023-03-30T13:55:35.854Z,46.90
2023-03-30T13:58:16.944Z,46.60
2023-03-30T14:00:49.887Z,46.40
2023-03-30T14:03:43.637Z,46.40
2023-03-30T14:06:14.249Z,46.20
2023-03-30T14:08:45.110Z,46.10
2023-03-30T14:11:29.384Z,46.10
2023-03-30T14:13:57.165Z,46.10
2023-03-30T14:16:27.291Z,46.00
2023-03-30T14:19:17.157Z,45.90
2023-03-30T14:21:46.705Z,45.50
2023-03-30T14:24:17.826Z,45.40
2023-03-30T14:26:47.834Z,45.40
2023-03-30T14:29:30.338Z,45.40
2023-03-30T14:34:33.801Z,45.50
2023-03-30T14:37:03.833Z,45.50
2023-03-30T14:39:32.779Z,45.40
2023-03-30T14:42:14.278Z,45.40
2023-03-30T14:44:41.462Z,45.60
2023-03-30T14:47:08.576Z,45.70
2023-03-30T14:49:36.698Z,45.50
2023-03-30T14:52:52.902Z,45.60
2023-03-30T14:55:24.621Z,45.70
2023-03-30T14:57:52.041Z,45.70
2023-03-30T15:00:22.209Z,45.70
2023-03-30T15:02:57.874Z,45.80
2023-03-30T15:05:37.546Z,45.80
2023-03-30T15:08:04.929Z,45.90
2023-03-30T15:10:45.703Z,46.20
2023-03-30T15:13:26.571Z,46.40
2023-03-30T15:15:54.721Z,46.50
2023-03-30T15:18:25.875Z,46.70
2023-03-30T15:20:54.701Z,46.90
2023-03-30T15:23:22.311Z,47.00
2023-03-30T15:25:50.416Z,46.90
2023-03-30T15:28:19.493Z,46.80
2023-03-30T15:30:52.815Z,46.80
2023-03-30T15:33:20.921Z,46.70
2023-03-30T15:35:51.726Z,46.70
2023-03-30T15:38:19.641Z,46.70
2023-03-30T15:40:50.107Z,46.50
2023-03-30T15:43:30.079Z,46.40
2023-03-30T15:46:00.733Z,46.20
2023-03-30T15:48:52.543Z,46.10
2023-03-30T15:51:33.186Z,46.00
2023-03-30T15:54:04.672Z,46.60
2023-03-30T15:56:39.518Z,45.90
2023-03-30T15:59:13.616Z,45.80
2023-03-30T16:01:56.610Z,45.70
2023-03-30T16:04:24.934Z,45.80
2023-03-30T16:06:52.779Z,45.60
2023-03-30T16:09:19.638Z,45.50
2023-03-30T16:11:47.159Z,45.20
2023-03-30T16:14:17.659Z,45.20
2023-03-30T16:16:44.604Z,45.20
2023-03-30T16:19:13.595Z,45.10
2023-03-30T16:21:41.370Z,45.10
2023-03-30T16:24:09.627Z,45.00
2023-03-30T16:26:36.417Z,45.10
2023-03-30T16:29:03.651Z,45.20
2023-03-30T16:31:30.692Z,45.40
2023-03-30T16:33:57.521Z,45.60
2023-03-30T16:36:24.828Z,45.80
2023-03-30T16:38:51.724Z,45.90
2023-03-30T16:41:20.789Z,45.90
2023-03-30T16:43:48.110Z,45.90
2023-03-30T16:46:20.242Z,45.90
2023-03-30T16:48:48.918Z,45.80
2023-03-30T16:51:16.235Z,45.70
2023-03-30T16:53:43.065Z,45.50
2023-03-30T16:56:18.333Z,45.40
2023-03-30T16:58:46.184Z,45.30
2023-03-30T17:01:15.818Z,45.10
2023-03-30T17:03:42.784Z,45.00
2023-03-30T17:06:09.663Z,44.80
2023-03-30T17:08:36.662Z,44.60
2023-03-30T17:11:04.904Z,44.50
2023-03-30T17:13:32.091Z,44.50
2023-03-30T17:16:01.177Z,44.40
2023-03-30T17:18:28.933Z,44.30
2023-03-30T17:20:57.800Z,44.30
2023-03-30T17:23:27.021Z,44.30
2023-03-30T17:25:55.961Z,44.40
2023-03-30T17:28:24.219Z,44.40
2023-03-30T17:30:52.893Z,44.40
2023-03-30T17:33:20.165Z,44.30
2023-03-30T17:35:51.183Z,44.10
2023-03-30T17:38:18.037Z,43.90
2023-03-30T17:40:46.084Z,43.70
2023-03-30T17:43:12.989Z,43.50
2023-03-30T17:45:40.830Z,43.30
2023-03-30T17:48:16.537Z,43.10
2023-03-30T17:50:46.615Z,42.90
2023-03-30T17:53:17.370Z,42.70
2023-03-30T17:55:49.057Z,42.50
2023-03-30T17:58:19.924Z,42.30
2023-03-30T18:00:48.204Z,42.10
2023-03-30T18:03:16.228Z,41.90
2023-03-30T18:05:44.704Z,41.80
2023-03-30T18:08:17.799Z,41.60
2023-03-30T18:10:49.080Z,41.50
2023-03-30T18:13:16.497Z,41.40
2023-03-30T18:15:44.092Z,41.30
2023-03-30T18:18:12.469Z,41.30
2023-03-30T18:20:44.514Z,41.20
2023-03-30T18:23:11.251Z,41.20
2023-03-30T18:25:38.028Z,41.10
2023-03-30T18:28:04.831Z,41.00
2023-03-30T18:30:36.875Z,41.00
2023-03-30T18:33:05.105Z,40.80
2023-03-30T18:35:34.415Z,40.70
2023-03-30T18:38:02.349Z,41.30
2023-03-30T18:40:41.763Z,40.50
2023-03-30T18:43:08.521Z,40.50
2023-03-30T18:45:41.046Z,41.20
2023-03-30T18:48:11.616Z,40.50
2023-03-30T18:50:43.692Z,41.30
2023-03-30T18:53:13.323Z,40.70
2023-03-30T18:55:43.454Z,40.80
2023-03-30T18:58:14.665Z,41.00
2023-03-30T19:00:42.020Z,41.10
2023-03-30T19:03:08.872Z,41.30
2023-03-30T19:05:36.510Z,41.40
2023-03-30T19:08:03.436Z,41.60
2023-03-30T19:10:32.433Z,41.70
2023-03-30T19:12:59.368Z,41.90
2023-03-30T19:15:29.238Z,41.90
2023-03-30T19:17:56.121Z,42.00
2023-03-30T19:20:25.054Z,42.00
2023-03-30T19:22:52.168Z,42.10
2023-03-30T19:25:21.321Z,42.00
2023-03-30T19:28:01.893Z,42.00
2023-03-30T19:30:32.404Z,42.00
2023-03-30T19:33:02.098Z,42.00
2023-03-30T19:35:30.076Z,42.00
2023-03-30T19:37:57.188Z,41.90
2023-03-30T19:40:24.198Z,41.90
2023-03-30T19:42:51.658Z,41.90
2023-03-30T19:45:21.138Z,41.80
2023-03-30T19:47:48.077Z,41.90
2023-03-30T19:50:18.383Z,41.90
2023-03-30T19:52:50.785Z,41.90
2023-03-30T19:55:21.541Z,41.90
2023-03-30T19:57:48.413Z,41.90
2023-03-30T20:00:17.764Z,41.90
2023-03-30T20:02:48.228Z,41.80
2023-03-30T20:05:16.280Z,41.80
2023-03-30T20:07:44.403Z,41.70
2023-03-30T20:10:16.638Z,41.70
2023-03-30T20:12:43.559Z,41.70
2023-03-30T20:15:11.270Z,41.60
2023-03-30T20:17:39.054Z,41.50
2023-03-30T20:20:09.289Z,41.50
2023-03-30T20:22:37.958Z,41.40
2023-03-30T20:25:07.532Z,41.30
2023-03-30T20:27:35.574Z,41.30
2023-03-30T20:30:04.001Z,41.20
2023-03-30T20:32:31.752Z,41.30
2023-03-30T20:34:58.699Z,41.40
2023-03-30T20:37:25.609Z,41.50
2023-03-30T20:39:52.488Z,41.60
2023-03-30T20:42:26.046Z,41.70
2023-03-30T20:44:53.524Z,41.80
2023-03-30T20:47:26.150Z,42.00
2023-03-30T20:49:55.752Z,42.10
2023-03-30T20:52:23.853Z,42.20
2023-03-30T20:54:52.477Z,42.20
2023-03-30T20:57:21.673Z,42.30
2023-03-30T20:59:50.177Z,42.30
2023-03-30T21:02:17.689Z,42.30
2023-03-30T21:04:45.007Z,42.30
2023-03-30T21:07:12.778Z,42.30
2023-03-30T21:09:40.143Z,42.30
2023-03-30T21:12:09.654Z,42.20
2023-03-30T21:14:36.817Z,42.20
2023-03-30T21:17:04.101Z,42.30
2023-03-30T21:19:31.231Z,42.30
2023-03-30T21:22:00.263Z,42.30
2023-03-30T21:24:27.680Z,42.30
2023-03-30T21:26:54.637Z,42.40
2023-03-30T21:29:22.651Z,42.30
2023-03-30T21:31:49.954Z,42.40
2023-03-30T21:34:18.727Z,42.40
2023-03-30T21:36:45.962Z,42.40
2023-03-30T21:39:13.515Z,42.30
2023-03-30T21:41:40.411Z,42.30
2023-03-30T21:44:07.644Z,42.30
2023-03-30T21:46:34.655Z,42.50
2023-03-30T21:49:01.545Z,42.50
2023-03-30T21:51:30.277Z,42.50
2023-03-30T21:53:57.967Z,42.60
2023-03-30T21:56:28.933Z,42.60
2023-03-30T21:58:56.372Z,42.60
2023-03-30T22:01:24.267Z,42.60
2023-03-30T22:03:52.599Z,42.60
2023-03-30T22:06:20.547Z,42.60
2023-03-30T22:08:48.035Z,42.50
2023-03-30T22:11:20.658Z,42.50
2023-03-30T22:13:48.954Z,42.50
2023-03-30T22:16:28.482Z,42.50
2023-03-30T22:18:55.763Z,42.40
2023-03-30T22:21:25.400Z,42.40
2023-03-30T22:23:55.334Z,42.30
2023-03-30T22:26:22.492Z,42.30
2023-03-30T22:28:49.415Z,42.30
2023-03-30T22:31:16.773Z,42.30
2023-03-30T22:33:44.068Z,42.40
2023-03-30T22:36:19.324Z,42.50
2023-03-30T22:38:48.076Z,42.60
2023-03-30T22:41:15.439Z,42.60
2023-03-30T22:43:42.387Z,42.70
2023-03-30T22:46:09.885Z,42.80
2023-03-30T22:48:37.378Z,42.80
2023-03-30T22:51:08.180Z,42.90
2023-03-30T22:53:35.797Z,43.00
2023-03-30T22:56:02.869Z,43.00
2023-03-30T22:58:29.883Z,43.00
2023-03-30T23:01:05.997Z,43.00
2023-03-30T23:03:33.218Z,43.10
2023-03-30T23:06:01.619Z,43.10
2023-03-30T23:08:30.066Z,43.10
2023-03-30T23:10:57.707Z,43.10
2023-03-30T23:13:25.058Z,43.10
2023-03-30T23:15:52.035Z,43.00
2023-03-30T23:18:18.940Z,43.00
2023-03-30T23:20:46.777Z,43.00
2023-03-30T23:23:15.011Z,43.00
2023-03-30T23:25:50.182Z,42.90
2023-03-30T23:28:17.584Z,42.90
2023-03-30T23:30:47.287Z,42.80
2023-03-30T23:33:14.191Z,42.80
2023-03-30T23:35:49.372Z,42.70
2023-03-30T23:38:17.061Z,42.70
2023-03-30T23:40:43.999Z,42.60
2023-03-30T23:43:11.086Z,42.60
2023-03-30T23:45:38.665Z,42.60
2023-03-30T23:48:06.039Z,42.50
2023-03-30T23:50:35.070Z,42.60
2023-03-30T23:53:01.988Z,42.50
2023-03-30T23:55:29.138Z,42.50
2023-03-30T23:57:56.223Z,42.50
